Latest Weather Observations for Parawa West

IDS60801

Issued at 6:05 pm CDT Thursday 23 October 2014 (issued every 30 minutes, with the page automatically refreshed every 10 minutes)

About weather observations | Map of weather stations | Latest weather observations for SA | Other Formats
Station Details ID: 023875 Name: SECOND VALLEY FOREST AWS Lat: -35.57 Lon: 138.29 Height: 341.0 m
Data from the previous 72 hours. | See also: Recent months at Parawa West
Date/Time
CDT
Temp
°C
App
Temp
°C
Dew
Point
Rel
Hum
%
Delta-T
°C
Wind Press
QNH
hPa
Press
MSL
hPa
Rain
since 9 am
mm
Dir
 
Spd
km/h
Gust
km/h
Spd
kts
Gust
kts
23/06:00pm 12.6 10.0 12.1 97 0.3 S 17 19 9 10 1015.3 1015.1 0.0
23/05:30pm 12.5 10.2 11.7 95 0.4 S 15 19 8 10 1015.2 1015.0 0.0
23/05:00pm 13.8 12.1 12.4 91 0.8 S 13 17 7 9 1015.1 1014.9 0.0
23/04:30pm 13.4 10.4 11.8 90 0.9 SSE 19 22 10 12 1015.1 1014.9 0.0
23/04:00pm 14.5 12.0 12.4 87 1.2 SSE 17 22 9 12 1015.1 1014.9 0.0
23/03:30pm 14.1 11.9 12.0 87 1.2 SSE 15 22 8 12 1015.4 1015.2 0.0
23/03:00pm 14.6 12.4 12.1 85 1.4 SSE 15 20 8 11 1015.6 1015.4 0.0
23/02:30pm 15.8 13.9 12.9 83 1.6 S 15 20 8 11 1016.0 1015.8 0.0
23/02:00pm 14.4 11.9 12.4 88 1.1 SSE 17 26 9 14 1016.2 1016.0 0.0
23/01:30pm 14.7 12.7 12.6 87 1.2 SE 15 20 8 11 1016.5 1016.4 0.0
23/01:00pm 14.9 12.5 12.6 86 1.3 SE 17 22 9 12 1016.8 1016.7 0.0
23/12:30pm 14.4 12.1 13.0 91 0.8 SSE 17 26 9 14 1017.0 1016.9 0.0
23/12:00pm 13.6 10.9 13.6 100 0.0 SSE 20 26 11 14 1017.4 1017.2 0.0
23/11:30am 12.6 9.2 12.6 100 0.0 SSE 22 30 12 16 1017.7 1017.5 0.0
23/11:00am 12.0 8.1 12.0 100 0.0 SE 24 32 13 17 1017.8 1017.6 0.0
23/10:30am 12.0 7.7 12.0 100 0.0 SSE 26 33 14 18 1017.9 1017.7 0.0
23/10:00am 11.6 6.8 11.6 100 0.0 SSE 28 35 15 19 1018.3 1018.1 0.0
23/09:30am 11.8 7.4 11.8 100 0.0 SSE 26 37 14 20 1018.3 1018.1 0.0
23/09:00am 11.3 6.0 11.3 100 0.0 SSE 30 39 16 21 1018.5 1018.3 0.0
23/08:30am 11.2 5.9 11.2 100 0.0 SSE 30 39 16 21 1018.4 1018.2 0.0
23/08:00am 10.9 5.9 10.9 100 0.0 SSE 28 37 15 20 1018.4 1018.2 0.0
23/07:30am 10.9 5.5 10.9 100 0.0 SSE 30 39 16 21 1018.5 1018.3 0.0
23/07:00am 10.9 5.5 10.9 100 0.0 SSE 30 39 16 21 1018.3 1018.1 0.0
23/06:30am 10.8 5.0 10.8 100 0.0 SSE 32 37 17 20 1018.1 1017.9 0.0
23/06:00am 10.9 5.1 10.9 100 0.0 SSE 32 41 17 22 1018.2 1018.0 0.0
23/05:30am 11.1 5.4 11.1 100 0.0 SSE 32 41 17 22 1018.3 1018.1 0.0
23/05:00am 11.1 5.4 11.1 100 0.0 SSE 32 43 17 23 1018.1 1017.9 0.0
23/04:30am 11.3 6.0 11.3 100 0.0 SSE 30 37 16 20 1018.0 1017.8 0.0
23/04:00am 11.2 6.3 11.2 100 0.0 SSE 28 35 15 19 1018.5 1018.3 0.0
23/03:30am 11.3 6.0 11.3 100 0.0 SSE 30 41 16 22 1018.4 1018.2 0.0
23/03:00am 11.3 6.4 11.3 100 0.0 SSE 28 37 15 20 1018.6 1018.4 0.0
23/02:30am 11.3 5.6 11.3 100 0.0 SSE 32 41 17 22 1018.7 1018.5 0.0
23/02:00am 11.3 6.0 11.3 100 0.0 SSE 30 39 16 21 1018.9 1018.7 0.0
23/01:30am 11.3 5.6 11.3 100 0.0 SSE 32 44 17 24 1019.1 1019.0 0.0
23/01:00am 11.4 6.1 11.4 100 0.0 SSE 30 39 16 21 1019.4 1019.3 0.0
23/12:30am 11.2 5.5 11.2 100 0.0 SSE 32 43 17 23 1019.6 1019.5 0.0
23/12:00am 11.4 6.1 11.4 100 0.0 SSE 30 41 16 22 1019.7 1019.6 0.0
 
Date/Time
CDT
Temp
°C
App
Temp
°C
Dew
Point
Rel
Hum
%
Delta-T
°C
Wind Press
QNH
hPa
Press
MSL
hPa
Rain
since 9 am
mm
Dir
 
Spd
km/h
Gust
km/h
Spd
kts
Gust
kts
22/11:30pm 11.5 5.7 11.5 100 0.0 SSE 33 43 18 23 1019.8 1019.7 0.0
22/11:00pm 11.4 5.2 11.4 100 0.0 SSE 35 44 19 24 1020.0 1019.9 0.0
22/10:30pm 11.6 5.1 11.6 100 0.0 SSE 37 46 20 25 1020.1 1020.0 0.0
22/10:00pm 11.6 5.1 11.6 100 0.0 SSE 37 48 20 26 1020.4 1020.2 0.0
22/09:30pm 11.4 5.2 11.4 100 0.0 SSE 35 46 19 25 1020.1 1020.0 0.0
22/09:00pm 11.7 5.6 11.7 100 0.0 SSE 35 46 19 25 1019.9 1019.8 0.0
22/08:30pm 11.7 5.6 11.7 100 0.0 SSE 35 44 19 24 1019.5 1019.4 0.0
22/08:00pm 11.8 5.7 11.8 100 0.0 SSE 35 46 19 25 1019.2 1019.1 0.0
22/07:30pm 11.8 6.1 11.8 100 0.0 SSE 33 44 18 24 1019.0 1018.9 0.0
22/07:00pm 12.1 6.5 12.1 100 0.0 SSE 33 43 18 23 1018.7 1018.5 0.0
22/06:30pm 12.3 6.4 12.3 100 0.0 SSE 35 44 19 24 1018.6 1018.4 0.0
22/06:00pm 12.4 6.5 12.4 100 0.0 SSE 35 44 19 24 1018.5 1018.3 0.0
22/05:30pm 12.6 7.1 12.6 100 0.0 SSE 33 44 18 24 1018.5 1018.3 0.0
22/05:00pm 13.0 7.9 13.0 100 0.0 SSE 32 41 17 22 1018.6 1018.4 0.0
22/04:30pm 13.1 7.8 13.1 100 0.0 SSE 33 43 18 23 1018.6 1018.4 0.0
22/04:00pm 13.3 8.1 12.8 97 0.3 S 32 44 17 24 1018.7 1018.5 0.0
22/03:30pm 13.4 8.2 12.9 97 0.3 S 32 41 17 22 1018.9 1018.7 0.0
22/03:00pm 13.8 8.8 13.5 98 0.2 S 32 39 17 21 1018.9 1018.7 0.0
22/02:30pm 14.0 9.2 12.9 93 0.6 S 30 39 16 21 1019.0 1018.9 0.0
22/02:00pm 15.1 10.4 13.1 88 1.1 S 30 35 16 19 1019.1 1019.0 0.0
22/01:30pm 14.9 10.6 13.1 89 1.0 S 28 35 15 19 1019.3 1019.2 0.0
22/01:00pm 14.8 10.5 13.2 90 0.9 S 28 37 15 20 1019.3 1019.2 0.0
22/12:30pm 14.9 10.2 13.3 90 0.9 S 30 37 16 20 1019.3 1019.2 0.0
22/12:00pm 16.2 12.1 13.7 85 1.4 S 28 35 15 19 1019.2 1019.1 0.0
22/11:30am 16.5 12.2 13.2 81 1.9 S 28 39 15 21 1019.2 1019.1 0.0
22/11:00am 16.9 12.5 13.0 78 2.2 S 28 37 15 20 1018.9 1018.7 0.0
22/10:30am 16.6 12.2 12.9 79 2.1 S 28 35 15 19 1019.0 1018.9 0.0
22/10:00am 16.1 11.7 12.8 81 1.9 S 28 35 15 19 1018.9 1018.7 0.0
22/09:30am 16.3 13.0 12.8 80 2.0 S 22 30 12 16 1018.8 1018.6 0.0
22/09:00am 16.3 12.6 12.7 79 2.0 S 24 33 13 18 1018.8 1018.6 0.0
22/08:30am 16.9 13.2 11.6 71 2.9 S 22 28 12 15 1018.5 1018.3 0.0
22/08:00am 15.1 11.8 11.7 80 1.9 S 20 28 11 15 1018.3 1018.1 0.0
22/07:30am 15.7 11.9 11.1 74 2.5 S 22 28 12 15 1018.0 1017.8 0.0
22/07:00am 14.9 12.1 10.1 73 2.5 S 15 19 8 10 1017.9 1017.7 0.0
22/06:30am 14.6 11.7 9.6 72 2.6 S 15 19 8 10 1017.5 1017.3 0.0
22/06:00am 15.2 12.3 8.2 63 3.6 SSE 13 17 7 9 1017.0 1016.9 0.0
22/05:30am 18.2 15.2 6.1 45 6.1 SSE 11 19 6 10 1016.8 1016.7 0.0
22/05:00am 20.3 17.0 4.8 36 7.7 E 11 17 6 9 1016.5 1016.4 0.0
22/04:30am 22.7 18.5 3.8 29 9.3 E 15 22 8 12 1016.5 1016.4 0.0
22/04:00am 22.9 17.7 3.4 28 9.6 E 20 28 11 15 1016.1 1015.9 0.0
22/03:30am 20.2 16.2 4.7 36 7.7 E 15 20 8 11 1016.6 1016.5 0.0
22/03:00am 20.5 17.3 4.9 36 7.7 ESE 11 17 6 9 1016.9 1016.8 0.0
22/02:30am 21.3 16.8 4.4 33 8.4 SE 17 22 9 12 1016.9 1016.8 0.0
22/02:00am 18.6 15.5 5.5 42 6.5 SE 11 15 6 8 1017.3 1017.1 0.0
22/01:30am 20.3 18.0 5.5 38 7.4 S 7 15 4 8 1017.8 1017.6 0.0
22/01:00am 19.3 16.2 7.1 45 6.3 S 13 15 7 8 1018.8 1018.6 0.0
22/12:30am 20.4 16.8 6.7 41 7.0 S 15 22 8 12 1018.9 1018.7 0.0
22/12:00am 21.2 18.1 7.4 41 7.2 S 13 19 7 10 1019.0 1018.9 0.0
 
Date/Time
CDT
Temp
°C
App
Temp
°C
Dew
Point
Rel
Hum
%
Delta-T
°C
Wind Press
QNH
hPa
Press
MSL
hPa
Rain
since 9 am
mm
Dir
 
Spd
km/h
Gust
km/h
Spd
kts
Gust
kts
21/11:30pm 23.9 21.2 5.8 31 9.3 SSE 9 13 5 7 1018.5 1018.3 0.0
21/11:00pm 27.6 23.3 3.3 21 12.3 ENE 15 20 8 11 1018.8 1018.6 0.0
21/10:30pm 27.2 23.7 3.7 22 11.9 NE 11 19 6 10 1018.8 1018.6 0.0
21/10:00pm 27.2 23.4 3.7 22 11.9 NE 13 17 7 9 1018.8 1018.6 0.0
21/09:30pm 26.8 22.6 4.0 23 11.6 NE 15 19 8 10 1018.7 1018.5 0.0
21/09:00pm 27.4 22.7 3.2 21 12.2 ENE 17 20 9 11 1018.3 1018.1 0.0
21/08:30pm 26.0 21.2 4.5 25 11.0 E 19 22 10 12 1018.1 1017.9 0.0
21/08:00pm 26.5 23.2 4.3 24 11.3 ENE 11 13 6 7 1018.1 1017.9 0.0
21/07:30pm 27.7 25.6 4.1 22 12.1 NNW 4 4 2 2 1018.3 1018.1 0.0
21/07:00pm 27.5 27.0 7.9 29 10.7 CALM 0 4 0 2 1018.1 1017.9 0.0
21/06:30pm 28.6 28.0 7.2 26 11.6 CALM 0 0 0 0 1018.3 1018.1 0.0
21/06:00pm 29.1 28.8 8.7 28 11.4 CALM 0 0 0 0 1018.3 1018.1 0.0
21/05:30pm 30.5 27.7 1.9 16 14.4 NW 6 9 3 5 1018.3 1018.1 0.0
21/05:00pm 32.5 29.6 1.6 14 15.7 NW 6 11 3 6 1018.2 1018.0 0.0
21/04:30pm 33.1 30.8 4.8 17 15.1 N 6 9 3 5 1018.2 1018.0 0.0
21/04:00pm 32.0 30.4 6.2 20 14.1 N 4 13 2 7 1018.6 1018.4 0.0
21/03:30pm 31.3 29.9 7.1 22 13.3 NNW 4 7 2 4 1018.8 1018.6 0.0
21/03:00pm 31.0 28.7 4.7 19 13.9 NNW 6 13 3 7 1019.0 1018.9 0.0
21/02:30pm 31.5 29.3 5.1 19 14.1 NNW 6 13 3 7 1019.3 1019.2 0.0
21/02:00pm 31.0 28.8 5.4 20 13.7 N 6 15 3 8 1019.7 1019.6 0.0
21/01:30pm 30.4 28.1 5.6 21 13.2 NNW 7 15 4 8 1020.0 1019.9 0.0
21/01:00pm 30.9 28.7 5.3 20 13.7 NNW 6 13 3 7 1020.2 1020.1 0.0
21/12:30pm 30.9 28.5 5.3 20 13.6 N 7 19 4 10 1020.6 1020.4 0.0
21/12:00pm 31.1 28.5 6.2 21 13.5 NE 9 30 5 16 1020.8 1020.6 0.0
21/11:30am 30.2 27.9 7.4 24 12.5 NNE 9 19 5 10 1020.9 1020.7 0.0
21/11:00am 29.2 27.3 7.7 26 11.8 NNW 7 13 4 7 1021.1 1020.9 0.0
21/10:30am 28.1 27.1 8.9 30 10.7 N 4 13 2 7 1021.2 1021.0 0.0
21/10:00am 26.0 24.9 8.5 33 9.6 NW 4 9 2 5 1021.3 1021.1 0.0
21/09:30am 25.6 24.7 9.4 36 9.0 WNW 4 6 2 3 1021.1 1020.9 0.0
21/09:00am 25.5 24.6 7.6 32 9.6 W 2 6 1 3 1020.8 1020.6 0.0
21/08:30am 24.1 22.3 7.3 34 8.9 NNE 6 13 3 7 1020.8 1020.6 0.0
21/08:00am 21.1 19.6 6.6 39 7.5 NE 4 9 2 5 1020.8 1020.6 0.0
21/07:30am 20.4 18.0 5.2 37 7.6 NE 7 11 4 6 1020.5 1020.3 0.0
21/07:00am 20.1 16.2 3.3 33 8.1 NE 13 20 7 11 1020.2 1020.1 0.0
21/06:30am 19.7 15.0 3.0 33 7.9 NE 17 22 9 12 1020.1 1020.0 0.0
21/06:00am 20.2 15.1 3.0 32 8.2 NE 19 26 10 14 1019.8 1019.7 0.0
21/05:30am 19.8 14.8 3.5 34 7.8 NE 19 26 10 14 1019.6 1019.5 0.0
21/05:00am 19.9 14.7 3.6 34 7.9 NE 20 32 11 17 1019.7 1019.6 0.0
21/04:30am 20.8 14.5 4.0 33 8.2 ENE 26 35 14 19 1019.6 1019.5 0.0
21/04:00am 21.1 14.4 3.8 32 8.5 ENE 28 35 15 19 1019.7 1019.6 0.0
21/03:30am 21.0 14.8 4.1 33 8.3 NE 26 37 14 20 1019.9 1019.8 0.0
21/03:00am 20.7 14.5 4.3 34 8.0 ENE 26 37 14 20 1020.2 1020.1 0.0
21/02:30am 20.9 14.4 4.5 34 8.1 ENE 28 39 15 21 1020.5 1020.3 0.0
21/02:00am 20.9 14.7 4.5 34 8.1 ENE 26 39 14 21 1020.9 1020.7 0.0
21/01:30am 20.7 14.2 4.7 35 7.9 ENE 28 39 15 21 1021.1 1020.9 0.0
21/01:00am 21.1 14.1 4.2 33 8.3 ENE 30 41 16 22 1021.4 1021.2 0.0
21/12:30am 21.2 15.0 4.3 33 8.3 ENE 26 33 14 18 1021.8 1021.7 0.0
21/12:00am 20.8 14.8 5.2 36 7.8 ENE 26 37 14 20 1022.2 1022.1 0.0
 
Date/Time
CDT
Temp
°C
App
Temp
°C
Dew
Point
Rel
Hum
%
Delta-T
°C
Wind Press
QNH
hPa
Press
MSL
hPa
Rain
since 9 am
mm
Dir
 
Spd
km/h
Gust
km/h
Spd
kts
Gust
kts
20/11:30pm 20.1 14.6 6.1 40 7.1 ENE 24 32 13 17 1022.5 1022.4 0.0
20/11:00pm 19.9 14.5 6.3 41 6.9 E 24 32 13 17 1022.9 1022.8 0.0
20/10:30pm 19.0 14.2 7.4 47 6.0 E 22 28 12 15 1023.1 1023.0 0.0
20/10:00pm 18.4 13.8 8.1 51 5.4 E 22 28 12 15 1023.1 1023.0 0.0
20/09:30pm 17.3 13.1 8.4 56 4.6 E 20 28 11 15 1023.0 1022.9 0.0
20/09:00pm 16.7 12.9 8.9 60 4.1 E 19 24 10 13 1022.9 1022.8 0.0
20/08:30pm 16.7 13.2 8.9 60 4.1 ESE 17 22 9 12 1022.9 1022.8 0.0
20/08:00pm 16.8 13.4 9.0 60 4.1 ESE 17 24 9 13 1022.6 1022.5 0.0
20/07:30pm 16.7 12.7 9.1 61 4.0 ESE 20 26 11 14 1022.4 1022.3 0.0
20/07:00pm 16.5 12.7 9.7 64 3.6 ESE 20 26 11 14 1022.2 1022.1 0.0
20/06:30pm 16.8 13.2 10.0 64 3.6 ESE 19 24 10 13 1022.1 1022.0 0.0

Other Formats:

Comma delimited format used in spreadsheet applications
http://www.bom.gov.au/fwo/IDS60801/IDS60801.94811.axf

JavaScript Object Notation format (JSON) in row-major order
http://www.bom.gov.au/fwo/IDS60801/IDS60801.94811.json